createdAt,value
2022-10-06T00:01:09.734Z,77.30
2022-10-06T00:08:11.535Z,77.32
2022-10-06T00:15:14.311Z,77.58
2022-10-06T00:22:15.857Z,77.38
2022-10-06T00:29:18.731Z,77.67
2022-10-06T00:36:21.082Z,78.41
2022-10-06T00:43:52.120Z,79.54
2022-10-06T00:50:54.122Z,79.14
2022-10-06T00:57:55.701Z,79.33
2022-10-06T01:04:58.136Z,78.72
2022-10-06T01:12:00.938Z,78.83
2022-10-06T01:19:04.919Z,78.69
2022-10-06T01:26:08.298Z,78.45
2022-10-06T01:33:09.958Z,78.46
2022-10-06T01:40:11.755Z,78.67
2022-10-06T01:47:13.579Z,77.93
2022-10-06T01:54:15.229Z,78.63
2022-10-06T02:01:16.977Z,78.46
2022-10-06T02:08:18.660Z,78.51
2022-10-06T02:15:21.827Z,79.18
2022-10-06T02:22:23.506Z,79.64
2022-10-06T02:29:26.037Z,79.59
2022-10-06T02:36:27.962Z,80.51
2022-10-06T02:43:31.536Z,80.44
2022-10-06T02:50:35.586Z,80.69
2022-10-06T02:57:37.437Z,80.60
2022-10-06T03:04:39.271Z,81.19
2022-10-06T03:11:42.643Z,81.72
2022-10-06T03:18:49.310Z,81.45
2022-10-06T03:25:57.611Z,81.60
2022-10-06T03:33:01.698Z,81.58
2022-10-06T03:40:04.028Z,81.91
2022-10-06T03:47:05.776Z,81.49
2022-10-06T03:54:12.324Z,82.76
2022-10-06T04:01:21.025Z,84.00
2022-10-06T04:08:26.112Z,84.28
2022-10-06T04:15:28.289Z,83.56
2022-10-06T04:22:29.961Z,83.69
2022-10-06T04:29:31.668Z,82.18
2022-10-06T04:36:35.378Z,78.13
2022-10-06T04:43:37.057Z,72.01
2022-10-06T04:50:38.719Z,68.13
2022-10-06T04:57:46.661Z,67.27
2022-10-06T05:04:48.681Z,65.58
2022-10-06T05:11:51.534Z,65.15
2022-10-06T05:18:55.553Z,64.61
2022-10-06T05:25:57.796Z,63.49
2022-10-06T05:32:59.519Z,62.15
2022-10-06T05:40:01.257Z,60.78
2022-10-06T05:47:03.535Z,61.16
2022-10-06T05:54:05.696Z,61.11
2022-10-06T06:01:31.251Z,60.85
2022-10-06T06:08:33.655Z,61.02
2022-10-06T06:15:54.435Z,61.07
2022-10-06T06:22:56.122Z,60.92
2022-10-06T06:30:01.215Z,60.66
2022-10-06T06:37:07.662Z,61.08
2022-10-06T06:44:12.011Z,61.60
2022-10-06T06:51:19.159Z,61.91
2022-10-06T06:58:20.970Z,61.88
2022-10-06T07:05:22.968Z,61.37
2022-10-06T07:12:25.305Z,62.05
2022-10-06T07:19:47.420Z,62.08
2022-10-06T07:26:49.632Z,61.51
2022-10-06T07:33:51.271Z,60.16
2022-10-06T07:48:21.326Z,57.85
2022-10-06T07:55:29.067Z,58.18
2022-10-06T08:02:42.336Z,56.44
2022-10-06T08:09:43.966Z,55.39
2022-10-06T08:16:45.929Z,54.39
2022-10-06T08:23:49.544Z,52.87
2022-10-06T08:30:52.333Z,51.59
2022-10-06T08:37:53.909Z,48.65
2022-10-06T08:45:00.268Z,45.39
2022-10-06T08:52:59.274Z,45.29
2022-10-06T09:00:01.291Z,45.31
2022-10-06T09:07:11.378Z,43.71
2022-10-06T09:14:17.864Z,42.92
2022-10-06T09:21:23.469Z,41.93
2022-10-06T09:28:25.338Z,41.31
2022-10-06T09:35:28.343Z,40.28
2022-10-06T09:42:32.714Z,39.68
2022-10-06T09:49:34.302Z,38.30
2022-10-06T09:56:39.775Z,38.98
2022-10-06T10:04:15.415Z,37.60
2022-10-06T10:11:40.239Z,36.27
2022-10-06T10:18:46.067Z,35.40
2022-10-06T10:26:05.409Z,33.77
2022-10-06T10:33:17.300Z,33.18
2022-10-06T10:40:24.712Z,30.71
2022-10-06T10:47:35.447Z,30.98
2022-10-06T10:54:42.024Z,30.77
2022-10-06T11:01:55.836Z,30.04
2022-10-06T11:09:05.349Z,30.07
2022-10-06T11:16:29.619Z,31.10
2022-10-06T11:23:40.545Z,29.24
2022-10-06T11:30:55.622Z,29.48
2022-10-06T11:38:00.232Z,30.99
2022-10-06T11:45:13.740Z,31.30
2022-10-06T11:52:15.215Z,30.80
2022-10-06T11:59:31.246Z,27.66
2022-10-06T12:06:42.041Z,26.83
2022-10-06T12:21:25.612Z,25.22
2022-10-06T12:28:30.070Z,25.42
2022-10-06T12:35:39.904Z,26.26
2022-10-06T12:42:42.216Z,25.78
2022-10-06T12:49:54.958Z,25.35
2022-10-06T12:57:28.491Z,25.68
2022-10-06T13:04:40.889Z,25.37
2022-10-06T13:11:42.500Z,24.97
2022-10-06T13:18:44.053Z,25.49
2022-10-06T13:25:47.967Z,26.63
2022-10-06T13:32:52.661Z,28.18
2022-10-06T13:39:54.217Z,29.42
2022-10-06T13:46:58.282Z,30.62
2022-10-06T13:54:20.833Z,31.78
2022-10-06T14:01:30.010Z,32.22
2022-10-06T14:08:31.624Z,32.67
2022-10-06T14:15:38.896Z,33.09
2022-10-06T14:22:40.586Z,33.54
2022-10-06T14:29:42.142Z,34.59
2022-10-06T14:36:45.473Z,35.14
2022-10-06T14:43:47.686Z,34.85
2022-10-06T14:50:49.545Z,35.32
2022-10-06T14:57:51.275Z,36.34
2022-10-06T15:04:52.866Z,35.83
2022-10-06T15:11:54.580Z,36.02
2022-10-06T15:18:57.797Z,37.04
2022-10-06T15:26:17.904Z,36.64
2022-10-06T15:33:20.536Z,36.89
2022-10-06T15:40:22.089Z,36.58
2022-10-06T15:47:24.711Z,36.85
2022-10-06T15:54:27.537Z,37.47
2022-10-06T16:01:43.339Z,37.73
2022-10-06T16:08:45.043Z,37.91
2022-10-06T16:15:53.060Z,38.43
2022-10-06T16:22:54.941Z,38.76
2022-10-06T16:29:56.568Z,39.21
2022-10-06T16:36:58.353Z,39.62
2022-10-06T16:43:59.940Z,39.53
2022-10-06T16:51:08.896Z,39.82
2022-10-06T16:58:10.483Z,40.11
2022-10-06T17:05:12.053Z,40.45
2022-10-06T17:12:13.594Z,40.91
2022-10-06T17:19:16.406Z,40.74
2022-10-06T17:26:19.483Z,41.34
2022-10-06T17:33:21.076Z,41.79
2022-10-06T17:40:22.685Z,41.87
2022-10-06T17:47:24.253Z,42.23
2022-10-06T17:54:26.958Z,42.99
2022-10-06T18:01:29.242Z,43.58
2022-10-06T18:08:34.146Z,43.97
2022-10-06T18:15:37.011Z,45.21
2022-10-06T18:22:38.860Z,45.25
2022-10-06T18:29:40.686Z,45.61
2022-10-06T18:36:42.323Z,46.46
2022-10-06T18:43:44.042Z,47.13
2022-10-06T18:50:45.662Z,47.22
2022-10-06T18:57:48.030Z,47.73
2022-10-06T19:04:49.624Z,48.29
2022-10-06T19:11:53.031Z,49.12
2022-10-06T19:18:54.819Z,49.22
2022-10-06T19:25:59.718Z,49.68
2022-10-06T19:33:01.281Z,50.75
2022-10-06T19:40:02.920Z,50.93
2022-10-06T19:47:06.881Z,51.32
2022-10-06T19:54:11.401Z,51.22
2022-10-06T20:01:13.134Z,51.41
2022-10-06T20:08:14.718Z,52.13
2022-10-06T20:15:16.347Z,53.17
2022-10-06T20:22:17.892Z,53.39
2022-10-06T20:29:28.871Z,53.57
2022-10-06T20:36:30.818Z,54.15
2022-10-06T20:43:33.459Z,54.49
2022-10-06T20:50:35.085Z,54.67
2022-10-06T20:57:36.807Z,54.91
2022-10-06T21:04:40.918Z,55.10
2022-10-06T21:11:43.083Z,55.25
2022-10-06T21:18:44.980Z,58.87
2022-10-06T21:25:46.655Z,58.25
2022-10-06T21:32:48.435Z,58.45
2022-10-06T21:39:50.073Z,58.10
2022-10-06T21:46:53.185Z,57.24
2022-10-06T21:53:56.789Z,57.47
2022-10-06T22:01:02.307Z,57.43
2022-10-06T22:08:03.936Z,57.64
2022-10-06T22:15:06.115Z,58.20
2022-10-06T22:22:07.731Z,58.52
2022-10-06T22:29:11.393Z,58.69
2022-10-06T22:36:13.533Z,59.20
2022-10-06T22:43:15.132Z,59.69
2022-10-06T22:50:16.767Z,59.91
2022-10-06T22:57:18.374Z,60.32
2022-10-06T23:04:20.035Z,60.60
2022-10-06T23:11:22.266Z,60.98
2022-10-06T23:18:23.874Z,61.27
2022-10-06T23:25:27.394Z,60.93
2022-10-06T23:32:29.113Z,61.01
2022-10-06T23:39:30.718Z,61.58
2022-10-06T23:46:32.358Z,62.13
2022-10-06T23:53:34.005Z,62.73
